Time,TemperatureF,DewpointF,PressureIn,WindDirection,WindDirectionDegrees,WindSpeedMPH,WindSpeedGustMPH,Humidity,HourlyPrecipIn,Conditions,Clouds,dailyrainin,SoftwareType,DateUTC
2013-09-23 00:02:00,50.4,49.0,29.95,NNE,22,0.0,-999.0,95,-99.99,,,0.00,Acu-Link.com,2013-09-23 04:02:00,
2013-09-23 00:17:00,50.4,48.5,29.95,NE,45,0.0,-999.0,93,-99.99,,,0.00,Acu-Link.com,2013-09-23 04:17:00,
2013-09-23 00:33:00,50.4,47.3,29.95,ESE,112,0.0,-999.0,89,-99.99,,,0.00,Acu-Link.com,2013-09-23 04:33:00,
2013-09-23 00:48:00,50.4,47.3,29.96,SW,225,0.0,-999.0,89,-99.99,,,0.00,Acu-Link.com,2013-09-23 04:48:00,
2013-09-23 01:03:00,50.5,47.4,29.95,WNW,292,0.0,-999.0,89,-99.99,,,0.00,Acu-Link.com,2013-09-23 05:03:00,
2013-09-23 01:19:00,50.5,47.4,29.96,WNW,292,0.0,-999.0,89,-99.99,,,0.00,Acu-Link.com,2013-09-23 05:19:00,
2013-09-23 01:34:00,50.5,47.4,29.96,NE,45,0.0,-999.0,89,-99.99,,,0.00,Acu-Link.com,2013-09-23 05:34:00,
2013-09-23 01:49:00,50.4,48.2,29.96,NNW,337,0.0,-999.0,92,-99.99,,,0.00,Acu-Link.com,2013-09-23 05:49:00,
2013-09-23 02:04:00,50.2,48.5,29.97,NNW,337,0.0,-999.0,94,-99.99,,,0.00,Acu-Link.com,2013-09-23 06:04:00,
2013-09-23 02:20:00,50.2,49.7,29.98,East,90,0.0,-999.0,98,-99.99,,,0.00,Acu-Link.com,2013-09-23 06:20:00,
2013-09-23 02:35:00,50.0,49.5,29.96,East,90,0.0,-999.0,98,-99.99,,,0.00,Acu-Link.com,2013-09-23 06:35:00,
2013-09-23 02:50:00,50.0,49.5,29.97,SW,225,0.0,-999.0,98,-99.99,,,0.00,Acu-Link.com,2013-09-23 06:50:00,
2013-09-23 03:05:00,50.0,49.5,29.97,SW,225,0.0,-999.0,98,-99.99,,,0.00,Acu-Link.com,2013-09-23 07:05:00,
2013-09-23 03:21:00,50.0,49.5,29.97,West,270,0.0,-999.0,98,-99.99,,,0.00,Acu-Link.com,2013-09-23 07:21:00,
2013-09-23 03:36:00,50.0,49.5,29.97,ESE,112,0.0,-999.0,98,-99.99,,,0.00,Acu-Link.com,2013-09-23 07:36:00,
2013-09-23 03:51:00,50.0,48.6,29.98,ESE,112,1.1,-999.0,95,-99.99,,,0.00,Acu-Link.com,2013-09-23 07:51:00,
2013-09-23 04:08:00,50.2,48.5,29.99,WNW,292,2.7,-999.0,94,-99.99,,,0.00,Acu-Link.com,2013-09-23 08:08:00,
2013-09-23 04:23:00,50.2,48.3,29.98,West,270,0.0,-999.0,93,-99.99,,,0.00,Acu-Link.com,2013-09-23 08:23:00,
2013-09-23 04:39:00,50.2,48.3,29.99,ESE,112,0.0,-999.0,93,-99.99,,,0.00,Acu-Link.com,2013-09-23 08:39:00,
2013-09-23 04:54:00,50.2,48.3,29.98,WNW,292,0.0,-999.0,93,-99.99,,,0.00,Acu-Link.com,2013-09-23 08:54:00,
2013-09-23 05:09:00,49.5,47.3,29.98,WNW,292,0.0,-999.0,92,-99.99,,,0.00,Acu-Link.com,2013-09-23 09:09:00,
2013-09-23 05:24:00,48.7,47.1,29.99,ENE,67,0.0,-999.0,94,-99.99,,,0.00,Acu-Link.com,2013-09-23 09:24:00,
2013-09-23 05:39:00,48.6,48.1,29.99,NNW,337,0.0,-999.0,98,-99.99,,,0.00,Acu-Link.com,2013-09-23 09:39:00,
2013-09-23 05:54:00,48.4,47.9,29.99,West,270,0.0,-999.0,98,-99.99,,,0.00,Acu-Link.com,2013-09-23 09:54:00,
2013-09-23 06:10:00,47.8,47.3,30.01,West,270,0.0,-999.0,98,-99.99,,,0.00,Acu-Link.com,2013-09-23 10:10:00,
2013-09-23 06:25:00,46.4,45.9,30.00,West,270,0.0,-999.0,98,-99.99,,,0.00,Acu-Link.com,2013-09-23 10:25:00,
2013-09-23 06:40:00,45.3,44.8,30.01,West,270,0.0,-999.0,98,-99.99,,,0.00,Acu-Link.com,2013-09-23 10:40:00,
2013-09-23 06:55:00,44.4,43.9,30.02,West,270,0.0,-999.0,98,-99.99,,,0.00,Acu-Link.com,2013-09-23 10:55:00,
2013-09-23 07:10:00,43.9,43.4,30.03,West,270,0.0,-999.0,98,-99.99,,,0.00,Acu-Link.com,2013-09-23 11:10:00,
2013-09-23 07:26:00,43.5,43.0,30.03,West,270,0.0,-999.0,98,-99.99,,,0.00,Acu-Link.com,2013-09-23 11:26:00,
2013-09-23 07:41:00,43.5,43.0,30.03,West,270,0.0,-999.0,98,-99.99,,,0.00,Acu-Link.com,2013-09-23 11:41:00,
2013-09-23 07:56:00,43.9,43.4,30.03,West,270,0.0,-999.0,98,-99.99,,,0.00,Acu-Link.com,2013-09-23 11:56:00,
2013-09-23 08:11:00,44.4,43.9,30.04,West,270,0.0,-999.0,98,-99.99,,,0.00,Acu-Link.com,2013-09-23 12:11:00,
2013-09-23 08:27:00,45.5,45.0,30.04,West,270,0.0,-999.0,98,-99.99,,,0.00,Acu-Link.com,2013-09-23 12:27:00,
2013-09-23 08:42:00,47.1,46.6,30.04,West,270,0.0,-999.0,98,-99.99,,,0.00,Acu-Link.com,2013-09-23 12:42:00,
2013-09-23 08:57:00,49.3,48.8,30.04,NW,315,1.1,-999.0,98,-99.99,,,0.00,Acu-Link.com,2013-09-23 12:57:00,
2013-09-23 09:13:00,55.0,50.6,30.05,NW,315,3.2,-999.0,85,-99.99,,,0.00,Acu-Link.com,2013-09-23 13:13:00,
2013-09-23 09:28:00,56.8,49.3,30.05,East,90,0.0,-999.0,76,-99.99,,,0.00,Acu-Link.com,2013-09-23 13:28:00,
2013-09-23 09:43:00,59.0,50.7,30.05,NNE,22,0.0,-999.0,74,-99.99,,,0.00,Acu-Link.com,2013-09-23 13:43:00,
2013-09-23 09:58:00,57.0,49.2,30.05,West,270,1.7,-999.0,75,-99.99,,,0.00,Acu-Link.com,2013-09-23 13:58:00,
2013-09-23 10:14:00,58.1,49.5,30.05,NW,315,0.0,-999.0,73,-99.99,,,0.00,Acu-Link.com,2013-09-23 14:14:00,
2013-09-23 10:29:00,56.1,47.2,30.06,ESE,112,0.0,-999.0,72,-99.99,,,0.00,Acu-Link.com,2013-09-23 14:29:00,
2013-09-23 10:44:00,58.1,48.4,30.05,SSE,157,3.7,-999.0,70,-99.99,,,0.00,Acu-Link.com,2013-09-23 14:44:00,
2013-09-23 11:00:00,58.8,48.7,30.06,NW,315,2.2,-999.0,69,-99.99,,,0.00,Acu-Link.com,2013-09-23 15:00:00,
2013-09-23 11:15:00,60.1,48.7,30.05,SSW,202,1.7,-999.0,66,-99.99,,,0.00,Acu-Link.com,2013-09-23 15:15:00,
2013-09-23 11:30:00,60.4,48.2,30.03,West,270,0.0,-999.0,64,-99.99,,,0.00,Acu-Link.com,2013-09-23 15:30:00,
2013-09-23 11:45:00,59.5,48.1,30.03,South,180,1.1,-999.0,66,-99.99,,,0.00,Acu-Link.com,2013-09-23 15:45:00,
2013-09-23 12:01:00,59.2,47.4,30.00,NNW,337,2.7,-999.0,65,-99.99,,,0.00,Acu-Link.com,2013-09-23 16:01:00,
2013-09-23 12:16:00,59.7,48.3,30.00,WSW,247,2.7,-999.0,66,-99.99,,,0.00,Acu-Link.com,2013-09-23 16:16:00,
2013-09-23 12:31:00,58.8,48.3,30.03,West,270,1.1,-999.0,68,-99.99,,,0.00,Acu-Link.com,2013-09-23 16:31:00,
2013-09-23 12:46:00,60.4,48.6,30.04,West,270,3.2,-999.0,65,-99.99,,,0.00,Acu-Link.com,2013-09-23 16:46:00,
2013-09-23 13:02:00,58.6,47.3,30.04,NNW,337,2.2,-999.0,66,-99.99,,,0.00,Acu-Link.com,2013-09-23 17:02:00,
2013-09-23 13:17:00,60.8,47.7,30.03,East,90,3.7,-999.0,62,-99.99,,,0.00,Acu-Link.com,2013-09-23 17:17:00,
2013-09-23 13:32:00,59.4,48.4,30.05,North,0,2.7,-999.0,67,-99.99,,,0.00,Acu-Link.com,2013-09-23 17:32:00,
2013-09-23 13:48:00,60.1,47.5,30.03,ENE,67,2.7,-999.0,63,-99.99,,,0.00,Acu-Link.com,2013-09-23 17:48:00,
2013-09-23 14:03:00,60.6,47.9,30.03,SW,225,1.7,-999.0,63,-99.99,,,0.00,Acu-Link.com,2013-09-23 18:03:00,
2013-09-23 14:18:00,60.8,49.4,30.03,SW,225,1.7,-999.0,66,-99.99,,,0.00,Acu-Link.com,2013-09-23 18:18:00,
2013-09-23 14:33:00,61.5,48.8,30.03,NNW,337,4.2,-999.0,63,-99.99,,,0.00,Acu-Link.com,2013-09-23 18:33:00,
2013-09-23 14:49:00,62.4,48.3,30.02,WNW,292,2.2,-999.0,60,-99.99,,,0.00,Acu-Link.com,2013-09-23 18:49:00,
2013-09-23 15:04:00,62.6,49.8,30.01,East,90,0.0,-999.0,63,-99.99,,,0.00,Acu-Link.com,2013-09-23 19:04:00,
2013-09-23 15:19:00,64.0,48.9,30.02,West,270,2.7,-999.0,58,-99.99,,,0.00,Acu-Link.com,2013-09-23 19:19:00,
2013-09-23 15:35:00,63.5,47.5,30.02,WNW,292,2.7,-999.0,56,-99.99,,,0.00,Acu-Link.com,2013-09-23 19:35:00,
2013-09-23 15:50:00,62.8,47.8,30.01,NE,45,1.1,-999.0,58,-99.99,,,0.00,Acu-Link.com,2013-09-23 19:50:00,
2013-09-23 16:05:00,60.8,47.3,30.01,West,270,0.0,-999.0,61,-99.99,,,0.00,Acu-Link.com,2013-09-23 20:05:00,
2013-09-23 16:20:00,63.1,48.1,30.01,West,270,1.7,-999.0,58,-99.99,,,0.00,Acu-Link.com,2013-09-23 20:20:00,
2013-09-23 16:51:00,59.4,45.9,30.01,NW,315,0.0,-999.0,61,-99.99,,,0.00,Acu-Link.com,2013-09-23 20:51:00,
2013-09-23 17:06:00,61.0,46.6,30.01,NE,45,3.2,-999.0,59,-99.99,,,0.00,Acu-Link.com,2013-09-23 21:06:00,
2013-09-23 17:21:00,59.9,46.0,30.02,West,270,1.1,-999.0,60,-99.99,,,0.00,Acu-Link.com,2013-09-23 21:21:00,
2013-09-23 17:36:00,59.2,46.6,30.02,NW,315,2.7,-999.0,63,-99.99,,,0.00,Acu-Link.com,2013-09-23 21:36:00,
2013-09-23 17:52:00,58.3,45.3,30.02,NE,45,0.0,-999.0,62,-99.99,,,0.00,Acu-Link.com,2013-09-23 21:52:00,
2013-09-23 18:07:00,57.4,46.1,30.03,NNW,337,0.0,-999.0,66,-99.99,,,0.00,Acu-Link.com,2013-09-23 22:07:00,
2013-09-23 18:22:00,56.5,46.5,30.02,ESE,112,0.0,-999.0,69,-99.99,,,0.00,Acu-Link.com,2013-09-23 22:22:00,
2013-09-23 18:37:00,55.0,46.9,30.02,SE,135,0.0,-999.0,74,-99.99,,,0.00,Acu-Link.com,2013-09-23 22:37:00,
2013-09-23 18:53:00,53.8,46.8,30.02,SE,135,0.0,-999.0,77,-99.99,,,0.00,Acu-Link.com,2013-09-23 22:53:00,
2013-09-23 19:08:00,52.2,46.5,30.02,SE,135,0.0,-999.0,81,-99.99,,,0.00,Acu-Link.com,2013-09-23 23:08:00,
2013-09-23 19:24:00,50.7,45.4,30.03,SE,135,0.0,-999.0,82,-99.99,,,0.00,Acu-Link.com,2013-09-23 23:24:00,
2013-09-23 19:39:00,49.8,45.5,30.02,SE,135,0.0,-999.0,85,-99.99,,,0.00,Acu-Link.com,2013-09-23 23:39:00,
2013-09-23 19:54:00,48.6,45.2,30.02,SE,135,0.0,-999.0,88,-99.99,,,0.00,Acu-Link.com,2013-09-23 23:54:00,
2013-09-23 20:09:00,47.8,45.3,30.03,SE,135,0.0,-999.0,91,-99.99,,,0.00,Acu-Link.com,2013-09-24 00:09:00,
2013-09-23 20:25:00,47.1,45.2,30.02,SW,225,0.0,-999.0,93,-99.99,,,0.00,Acu-Link.com,2013-09-24 00:25:00,
2013-09-23 20:40:00,46.8,46.3,30.04,WNW,292,0.0,-999.0,98,-99.99,,,0.00,Acu-Link.com,2013-09-24 00:40:00,
2013-09-23 20:55:00,46.4,45.9,30.02,WNW,292,0.0,-999.0,98,-99.99,,,0.00,Acu-Link.com,2013-09-24 00:55:00,
2013-09-23 21:10:00,46.4,45.9,30.03,WNW,292,0.0,-999.0,98,-99.99,,,0.00,Acu-Link.com,2013-09-24 01:10:00,
2013-09-23 21:26:00,46.0,45.5,30.02,NNW,337,0.0,-999.0,98,-99.99,,,0.00,Acu-Link.com,2013-09-24 01:26:00,
2013-09-23 21:41:00,45.7,45.2,30.03,NNW,337,0.0,-999.0,98,-99.99,,,0.00,Acu-Link.com,2013-09-24 01:41:00,
2013-09-23 21:56:00,45.5,45.0,30.03,NNW,337,0.0,-999.0,98,-99.99,,,0.00,Acu-Link.com,2013-09-24 01:56:00,
2013-09-23 22:11:00,45.1,44.6,30.03,NNW,337,0.0,-999.0,98,-99.99,,,0.00,Acu-Link.com,2013-09-24 02:11:00,
2013-09-23 22:27:00,45.1,44.6,30.03,NNW,337,0.0,-999.0,98,-99.99,,,0.00,Acu-Link.com,2013-09-24 02:27:00,
2013-09-23 22:42:00,44.8,44.3,30.03,NNW,337,0.0,-999.0,98,-99.99,,,0.00,Acu-Link.com,2013-09-24 02:42:00,
2013-09-23 22:57:00,44.6,44.1,30.03,NNW,337,0.0,-999.0,98,-99.99,,,0.00,Acu-Link.com,2013-09-24 02:57:00,
2013-09-23 23:13:00,44.1,43.6,30.03,NNW,337,0.0,-999.0,98,-99.99,,,0.00,Acu-Link.com,2013-09-24 03:13:00,
2013-09-23 23:28:00,44.1,43.6,30.03,NNW,337,0.0,-999.0,98,-99.99,,,0.00,Acu-Link.com,2013-09-24 03:28:00,
2013-09-23 23:43:00,44.1,43.6,30.04,NNW,337,0.0,-999.0,98,-99.99,,,0.00,Acu-Link.com,2013-09-24 03:43:00,
2013-09-23 23:59:00,43.9,43.4,30.04,NNW,337,0.0,-999.0,98,-99.99,,,0.00,Acu-Link.com,2013-09-24 03:59:00,